Sylmar, CA (91342)

7:32 AM PDT on September 05, 2015 (GMT -0700)
Fenton | | Change Station
CLOSE
Current Station
Personal Weather Station
Location: Los Angeles, CA
Elevation: 1512 ft
Nearby Weather Stations

Elev 1512 ft 34.32 °N, 118.43 °W | Updated 8 seconds ago

Clear
Clear
61.2 °F
Feels Like 61.2 °F
N
0.0
Wind Variable Wind from WSW
Gusts 0.0 mph

Today
High -- | Low -- °F
--% Chance of Precip.
Yesterday
High -- | Low -- °F
Precip. -- in
6:29 AM 7:14 PM
Waning Gibbous, 48% visible
Pressure 29.88 in
Visibility 10.0 miles
Clouds Clear
Dew Point 55 °F
Humidity 80%
Rainfall 0.00 in
Snow Depth Not available.
UV 1.0 out of 12
Pollen 8.40 out of 12
Air Quality Not available.
Flu Activity Not available.
METAR KVNY 051351Z 00000KT 10SM -RA CLR 16/13 A2990 RMK AO2 SLP119 P0000 T01610128
Pressure 29.88 in
Visibility 10.0 miles
Clouds Clear
Dew Point 55 °F
Humidity 80%
Rainfall 0.00 in
Snow Depth Not available.
UV 1.0 out of 12
Pollen 8.40 out of 12
Air Quality Not available.
Flu Activity Not available.
METAR KVNY 051351Z 00000KT 10SM -RA CLR 16/13 A2990 RMK AO2 SLP119 P0000 T01610128

10-Day Weather Forecast

×

Almanac

Astronomy

Sep. 05, 2015 Rise Set
Actual Time
Civil Twilight
Nautical Twilight
Astronomical Twilight
Moon
Length of Visible Light
Length of Day
Tomorrow will be .
, % of the Moon is Illuminated

Today's Extremes

State Highs State Lows

Community

WunderPhotos

Upload Photos

1,852,475 photos uploaded!

WunderBlogs® & News

Nearby

Air Quality

  Air Quality AQ Index Pollutant
Not available.

Snow Depth

Station Depth Elevation

Earthquake Activity

City Distance Mag. Time & Date
Minimum magnitude displayed is 2.5.

Coastal Water Temperatures

Place Temperature

Stations

Nearby Weather Stations

Station Location Temp. Windchill Dew Point Humidity Wind Precip. Elev Updated Type